Main page
METAR-TAF:

METAR-TAF

Airports :

Hays Regional Airport

Hays, Kansas, United States

latitude: 38-51N, longitude: 099-16W, elevation: 1998 ft

Current weather observation

The report was made 21 minutes ago, at 21:56 UTC
Wind 6 mph from the South
Temperature 54°F
Humidity 47%
Pressure 29.87 in. Hg
Visibility: 10 miles
Clear sky

METAR: KHYS 162156Z AUTO 19005KT 10SM CLR 12/01 A2987 RMK AO2 SLP126 T01170006

Time: 16:17 (22:17 UTC)

Forecast

The report was made 4 hours and 57 minutes ago, at 17:20 UTC
Forecast valid from 16 at 18 UTC to 17 at 18 UTC
Wind 9 mph from the Northwest
Visibility: 6 miles
Clear sky
From 17 at 1600 UTC
Wind 15 mph from the Northwest with gusts up to 26 mph
Visibility: 6 miles
Scattered clouds at a height of 18000 ft

TAF: KHYS 161720Z 1618/1718 31008KT P6SM SKC FM171600 32013G23KT P6SM SCT180

Weather observations and forecasts of more than 4000 airports (METAR and TAF reports).

The available stations are represented by yellow and red dots on the map.

Hover mouse over dot to see the name of the station.

Then click to see weather observations and forecasts.

To change the map : click on the green buttons with a black cross to zoom in, on the green button with a dash to zoom out, or on the green arrows for adjacent maps.


METAR-TAF: